createdAt,value
2022-09-27T00:01:16.721Z,0.20
2022-09-27T00:03:44.155Z,0.10
2022-09-27T00:06:25.029Z,0.20
2022-09-27T00:08:52.046Z,0.20
2022-09-27T00:11:30.050Z,0.22
2022-09-27T00:13:59.237Z,0.20
2022-09-27T00:16:29.314Z,0.20
2022-09-27T00:19:04.931Z,0.30
2022-09-27T00:21:32.326Z,0.20
2022-09-27T00:23:59.680Z,0.30
2022-09-27T00:26:27.566Z,0.30
2022-09-27T00:28:55.153Z,0.10
2022-09-27T00:31:25.084Z,0.30
2022-09-27T00:33:53.455Z,0.30
2022-09-27T00:36:21.984Z,0.20
2022-09-27T00:38:49.496Z,0.25
2022-09-27T00:41:25.677Z,0.17
2022-09-27T00:43:58.408Z,0.22
2022-09-27T00:46:46.669Z,0.22
2022-09-27T00:49:24.264Z,0.30
2022-09-27T00:52:01.340Z,0.30
2022-09-27T00:54:31.349Z,0.40
2022-09-27T00:56:59.669Z,0.15
2022-09-27T00:59:30.199Z,0.20
2022-09-27T01:01:57.507Z,0.30
2022-09-27T01:04:28.747Z,0.20
2022-09-27T01:06:57.127Z,0.20
2022-09-27T01:09:25.067Z,0.20
2022-09-27T01:12:10.732Z,0.55
2022-09-27T01:15:01.171Z,0.30
2022-09-27T01:17:45.997Z,0.20
2022-09-27T01:20:34.483Z,0.30
2022-09-27T01:26:21.827Z,0.30
2022-09-27T01:29:13.894Z,0.20
2022-09-27T01:31:52.523Z,0.38
2022-09-27T01:34:34.051Z,0.40
2022-09-27T01:37:34.891Z,0.30
2022-09-27T01:40:18.555Z,0.20
2022-09-27T01:43:11.377Z,0.22
2022-09-27T01:45:59.369Z,0.28
2022-09-27T01:49:08.837Z,0.30
2022-09-27T01:51:44.479Z,0.28
2022-09-27T01:54:18.989Z,0.35
2022-09-27T01:56:58.059Z,0.22
2022-09-27T01:59:44.725Z,0.30
2022-09-27T02:02:52.898Z,0.40
2022-09-27T02:05:50.450Z,0.30
2022-09-27T02:08:52.940Z,0.40
2022-09-27T02:11:45.549Z,0.45
2022-09-27T02:14:27.220Z,0.40
2022-09-27T02:17:32.602Z,0.65
2022-09-27T02:20:31.701Z,0.70
2022-09-27T02:23:10.272Z,0.60
2022-09-27T02:25:50.856Z,0.73
2022-09-27T02:28:31.302Z,0.80
2022-09-27T02:30:58.582Z,0.85
2022-09-27T02:33:54.152Z,0.70
2022-09-27T02:36:22.650Z,0.63
2022-09-27T02:38:49.761Z,1.10
2022-09-27T02:41:22.132Z,0.60
2022-09-27T02:43:55.897Z,0.70
2022-09-27T02:46:38.610Z,0.60
2022-09-27T02:49:20.573Z,0.60
2022-09-27T02:52:28.799Z,0.65
2022-09-27T02:54:56.005Z,0.82
2022-09-27T02:58:08.029Z,0.80
2022-09-27T03:01:45.385Z,0.80
2022-09-27T03:04:41.534Z,0.80
2022-09-27T03:07:09.157Z,0.70
2022-09-27T03:09:45.759Z,0.88
2022-09-27T03:12:12.893Z,0.90
2022-09-27T03:14:40.661Z,0.90
2022-09-27T03:17:27.625Z,0.70
2022-09-27T03:20:13.185Z,0.80
2022-09-27T03:22:53.380Z,0.93
2022-09-27T03:25:21.498Z,0.73
2022-09-27T03:27:49.151Z,0.80
2022-09-27T03:30:16.296Z,0.65
2022-09-27T03:32:46.930Z,1.25
2022-09-27T03:35:32.610Z,0.77
2022-09-27T03:38:00.088Z,1.00
2022-09-27T03:40:27.430Z,0.77
2022-09-27T03:42:55.129Z,0.90
2022-09-27T03:45:22.618Z,0.80
2022-09-27T03:47:50.084Z,0.70
2022-09-27T03:50:17.795Z,0.77
2022-09-27T03:52:45.642Z,0.93
2022-09-27T03:55:14.118Z,0.70
2022-09-27T03:57:46.414Z,0.70
2022-09-27T04:00:15.198Z,0.90
2022-09-27T04:02:43.159Z,0.82
2022-09-27T04:05:22.240Z,0.85
2022-09-27T04:07:50.021Z,0.65
2022-09-27T04:12:46.008Z,0.80
2022-09-27T04:15:13.420Z,0.70
2022-09-27T04:17:49.771Z,0.80
2022-09-27T04:20:36.647Z,0.80
2022-09-27T04:23:07.447Z,0.77
2022-09-27T04:25:37.228Z,0.80
2022-09-27T04:28:10.881Z,0.95
2022-09-27T04:30:38.102Z,1.90
2022-09-27T04:33:34.664Z,0.80
2022-09-27T04:36:27.794Z,1.13
2022-09-27T04:39:14.060Z,1.10
2022-09-27T04:41:45.140Z,1.13
2022-09-27T04:44:12.807Z,0.80
2022-09-27T04:46:43.048Z,1.00
2022-09-27T04:49:12.296Z,0.75
2022-09-27T04:51:39.734Z,0.90
2022-09-27T04:54:06.767Z,0.88
2022-09-27T04:56:37.797Z,0.60
2022-09-27T04:59:09.797Z,0.70
2022-09-27T05:01:38.673Z,0.80
2022-09-27T05:04:26.282Z,1.08
2022-09-27T05:06:57.364Z,0.85
2022-09-27T05:09:42.360Z,0.70
2022-09-27T05:12:09.781Z,1.23
2022-09-27T05:14:43.413Z,0.80
2022-09-27T05:17:16.430Z,1.20
2022-09-27T05:19:43.446Z,0.80
2022-09-27T05:22:27.815Z,0.80
2022-09-27T05:24:55.769Z,0.88
2022-09-27T05:27:24.524Z,0.85
2022-09-27T05:29:51.794Z,0.90
2022-09-27T05:32:24.303Z,1.00
2022-09-27T05:35:26.927Z,0.85
2022-09-27T05:37:57.329Z,0.90
2022-09-27T05:40:42.495Z,0.80
2022-09-27T05:43:11.493Z,0.75
2022-09-27T05:45:38.679Z,0.90
2022-09-27T05:48:06.823Z,0.70
2022-09-27T05:50:40.485Z,0.60
2022-09-27T05:53:07.797Z,0.93
2022-09-27T05:55:35.004Z,0.60
2022-09-27T05:58:04.969Z,0.90
2022-09-27T06:00:39.823Z,0.80
2022-09-27T06:03:26.809Z,0.80
2022-09-27T06:06:12.281Z,0.50
2022-09-27T06:08:46.457Z,0.60
2022-09-27T06:11:17.396Z,0.60
2022-09-27T06:13:45.290Z,0.70
2022-09-27T06:16:13.038Z,0.60
2022-09-27T06:18:43.395Z,0.60
2022-09-27T06:21:11.606Z,0.60
2022-09-27T06:23:38.746Z,0.80
2022-09-27T06:26:14.830Z,0.40
2022-09-27T06:28:52.335Z,0.60
2022-09-27T06:31:19.631Z,0.40
2022-09-27T06:33:49.425Z,0.50
2022-09-27T06:36:18.011Z,0.73
2022-09-27T06:41:28.257Z,0.65
2022-09-27T06:44:15.614Z,0.70
2022-09-27T06:47:14.959Z,0.70
2022-09-27T06:49:54.387Z,0.60
2022-09-27T06:52:21.378Z,0.57
2022-09-27T06:54:50.881Z,0.45
2022-09-27T06:57:38.220Z,0.32
2022-09-27T07:00:23.703Z,0.45
2022-09-27T07:03:11.486Z,0.60
2022-09-27T07:06:06.406Z,0.88
2022-09-27T07:08:45.551Z,0.43
2022-09-27T07:11:12.594Z,0.57
2022-09-27T07:13:42.984Z,0.50
2022-09-27T07:16:14.651Z,0.77
2022-09-27T07:18:43.126Z,0.50
2022-09-27T07:21:12.988Z,0.50
2022-09-27T07:23:40.642Z,0.50
2022-09-27T07:26:10.923Z,0.60
2022-09-27T07:28:41.606Z,0.65
2022-09-27T07:31:10.801Z,0.70
2022-09-27T07:33:42.964Z,0.80
2022-09-27T07:36:11.993Z,0.68
2022-09-27T07:38:42.384Z,0.68
2022-09-27T07:41:14.858Z,0.57
2022-09-27T07:43:44.872Z,0.70
2022-09-27T07:46:13.725Z,0.60
2022-09-27T07:48:52.479Z,0.70
2022-09-27T07:51:39.674Z,0.63
2022-09-27T07:54:13.486Z,0.65
2022-09-27T07:57:16.605Z,0.60
2022-09-27T07:59:50.028Z,0.60
2022-09-27T08:02:20.276Z,0.70
2022-09-27T08:04:49.065Z,0.68
2022-09-27T08:07:16.897Z,0.90
2022-09-27T08:09:47.139Z,0.73
2022-09-27T08:12:14.361Z,1.00
2022-09-27T08:14:47.379Z,0.65
2022-09-27T08:17:16.364Z,0.85
2022-09-27T08:20:06.379Z,0.73
2022-09-27T08:23:04.336Z,0.90
2022-09-27T08:25:36.465Z,0.80
2022-09-27T08:28:29.798Z,0.75
2022-09-27T08:31:02.800Z,0.80
2022-09-27T08:33:32.901Z,0.70
2022-09-27T08:36:02.002Z,0.60
2022-09-27T08:38:29.207Z,0.80
2022-09-27T08:41:10.275Z,0.77
2022-09-27T08:43:49.103Z,0.60
2022-09-27T08:46:44.611Z,0.80
2022-09-27T08:49:40.037Z,0.82
2022-09-27T08:52:13.910Z,0.80
2022-09-27T08:54:41.634Z,0.77
2022-09-27T08:57:13.847Z,1.73
2022-09-27T09:00:14.912Z,0.95
2022-09-27T09:02:43.034Z,1.05
2022-09-27T09:05:35.572Z,0.98
2022-09-27T09:08:34.384Z,0.77
2022-09-27T09:11:32.128Z,0.75
2022-09-27T09:14:36.527Z,0.70
2022-09-27T09:17:33.020Z,0.90
2022-09-27T09:20:26.351Z,0.98
2022-09-27T09:23:41.398Z,0.98
2022-09-27T09:26:31.115Z,0.73
2022-09-27T09:29:10.230Z,0.80
2022-09-27T09:31:49.010Z,0.70
2022-09-27T09:34:25.744Z,0.80
2022-09-27T09:37:14.143Z,0.80
2022-09-27T09:39:48.797Z,1.00
2022-09-27T09:42:29.341Z,0.47
2022-09-27T09:45:02.594Z,0.73
2022-09-27T09:47:40.707Z,0.68
2022-09-27T09:50:21.526Z,0.40
2022-09-27T09:52:54.423Z,0.70
2022-09-27T09:55:25.414Z,0.80
2022-09-27T09:58:28.766Z,0.70
2022-09-27T10:01:22.200Z,0.50
2022-09-27T10:04:11.868Z,0.70
2022-09-27T10:06:39.157Z,0.73
2022-09-27T10:09:08.840Z,0.73
2022-09-27T10:11:48.205Z,0.82
2022-09-27T10:14:23.786Z,0.43
2022-09-27T10:17:01.146Z,0.43
2022-09-27T10:19:31.104Z,0.60
2022-09-27T10:22:10.885Z,0.70
2022-09-27T10:25:08.024Z,0.77
2022-09-27T10:27:48.194Z,0.50
2022-09-27T10:30:31.574Z,0.40
2022-09-27T10:33:05.430Z,0.38
2022-09-27T10:35:46.177Z,0.70
2022-09-27T10:38:26.077Z,0.47
2022-09-27T10:41:35.584Z,0.40
2022-09-27T10:44:29.684Z,0.65
2022-09-27T10:47:23.643Z,1.10
2022-09-27T10:50:05.307Z,0.50
2022-09-27T10:52:44.796Z,0.63
2022-09-27T10:55:23.490Z,0.80
2022-09-27T10:57:55.261Z,0.60
2022-09-27T11:00:27.140Z,0.70
2022-09-27T11:03:08.329Z,0.52
2022-09-27T11:05:39.660Z,0.73
2022-09-27T11:08:21.614Z,0.43
2022-09-27T11:11:24.226Z,0.50
2022-09-27T11:14:04.318Z,0.50
2022-09-27T11:16:52.356Z,0.47
2022-09-27T11:19:45.133Z,0.70
2022-09-27T11:22:43.466Z,0.50
2022-09-27T11:25:33.989Z,0.50
2022-09-27T11:28:21.437Z,0.50
2022-09-27T11:31:10.476Z,0.83
2022-09-27T11:34:02.077Z,0.60
2022-09-27T11:36:54.848Z,0.60
2022-09-27T11:39:51.296Z,0.70
2022-09-27T11:42:33.355Z,0.77
2022-09-27T11:46:13.384Z,0.70
2022-09-27T11:48:53.185Z,0.87
2022-09-27T11:51:35.396Z,0.80
2022-09-27T11:54:22.577Z,0.63
2022-09-27T11:57:18.783Z,0.73
2022-09-27T12:00:07.871Z,0.60
2022-09-27T12:03:02.148Z,0.57
2022-09-27T12:08:33.393Z,0.70
2022-09-27T12:11:38.996Z,0.60
2022-09-27T12:14:19.200Z,0.93
2022-09-27T12:16:52.216Z,0.60
2022-09-27T12:19:27.281Z,0.50
2022-09-27T12:22:29.783Z,0.60
2022-09-27T12:25:06.119Z,0.45
2022-09-27T12:27:53.708Z,0.60
2022-09-27T12:30:22.451Z,0.50
2022-09-27T12:33:10.551Z,0.50
2022-09-27T12:35:49.433Z,0.57
2022-09-27T12:38:23.181Z,0.50
2022-09-27T12:40:54.163Z,0.55
2022-09-27T12:43:35.235Z,0.45
2022-09-27T12:49:05.227Z,0.43
2022-09-27T12:51:59.584Z,0.30
2022-09-27T12:54:45.454Z,0.40
2022-09-27T12:57:31.416Z,0.38
2022-09-27T13:00:01.661Z,0.40
2022-09-27T13:03:14.052Z,0.40
2022-09-27T13:05:46.003Z,0.50
2022-09-27T13:08:40.346Z,0.63
2022-09-27T13:11:41.364Z,0.50
2022-09-27T13:14:19.747Z,0.60
2022-09-27T13:19:35.776Z,0.38
2022-09-27T13:22:22.431Z,0.50
2022-09-27T13:25:46.418Z,0.50
2022-09-27T13:28:33.222Z,0.43
2022-09-27T13:31:05.242Z,0.60
2022-09-27T13:33:46.504Z,0.50
2022-09-27T13:36:19.391Z,0.50
2022-09-27T13:39:05.980Z,0.50
2022-09-27T13:41:48.648Z,0.52
2022-09-27T13:44:50.524Z,0.57
2022-09-27T13:47:36.364Z,0.55
2022-09-27T13:50:27.599Z,0.50
2022-09-27T13:53:03.032Z,0.55
2022-09-27T13:55:42.279Z,0.68
2022-09-27T13:58:36.269Z,0.70
2022-09-27T14:01:24.788Z,0.40
2022-09-27T14:03:53.934Z,0.68
2022-09-27T14:06:49.158Z,0.40
2022-09-27T14:09:37.842Z,0.50
2022-09-27T14:12:28.874Z,0.75
2022-09-27T14:14:58.479Z,0.60
2022-09-27T14:17:26.320Z,0.60
2022-09-27T14:19:54.432Z,0.75
2022-09-27T14:22:24.268Z,0.40
2022-09-27T14:25:00.397Z,0.40
2022-09-27T14:30:19.865Z,0.70
2022-09-27T14:33:31.177Z,0.60
2022-09-27T14:36:26.980Z,0.55
2022-09-27T14:38:58.977Z,0.50
2022-09-27T14:41:39.460Z,0.45
2022-09-27T14:44:19.393Z,0.52
2022-09-27T14:46:47.480Z,0.68
2022-09-27T14:49:25.120Z,0.47
2022-09-27T14:51:56.565Z,0.70
2022-09-27T14:54:30.645Z,0.52
2022-09-27T14:57:00.401Z,0.85
2022-09-27T14:59:35.564Z,0.80
2022-09-27T15:02:15.254Z,0.63
2022-09-27T15:04:46.804Z,0.50
2022-09-27T15:07:17.075Z,0.80
2022-09-27T15:09:45.678Z,0.77
2022-09-27T15:14:44.793Z,0.63
2022-09-27T15:17:18.449Z,0.68
2022-09-27T15:20:18.647Z,0.52
2022-09-27T15:22:45.927Z,0.77
2022-09-27T15:25:20.748Z,0.50
2022-09-27T15:27:56.031Z,0.60
2022-09-27T15:30:37.900Z,0.70
2022-09-27T15:33:06.579Z,0.60
2022-09-27T15:35:36.212Z,0.68
2022-09-27T15:38:16.396Z,0.45
2022-09-27T15:40:43.669Z,0.43
2022-09-27T15:43:32.654Z,0.40
2022-09-27T15:46:04.356Z,0.30
2022-09-27T15:48:33.468Z,0.50
2022-09-27T15:51:01.226Z,0.50
2022-09-27T15:53:37.180Z,0.63
2022-09-27T15:56:06.824Z,0.55
2022-09-27T15:58:34.851Z,0.60
2022-09-27T16:01:05.727Z,0.60
2022-09-27T16:03:33.489Z,0.60
2022-09-27T16:06:02.736Z,0.50
2022-09-27T16:08:30.558Z,0.50
2022-09-27T16:10:59.111Z,0.40
2022-09-27T16:13:32.362Z,0.50
2022-09-27T16:16:00.207Z,0.50
2022-09-27T16:18:30.563Z,0.57
2022-09-27T16:20:58.986Z,0.65
2022-09-27T16:23:26.485Z,0.80
2022-09-27T16:25:54.056Z,0.55
2022-09-27T16:28:21.101Z,0.70
2022-09-27T16:30:48.393Z,0.60
2022-09-27T16:33:15.471Z,0.40
2022-09-27T16:35:42.583Z,0.60
2022-09-27T16:38:10.169Z,0.60
2022-09-27T16:40:38.080Z,0.73
2022-09-27T16:43:07.384Z,0.70
2022-09-27T16:45:36.888Z,0.52
2022-09-27T16:48:04.138Z,0.57
2022-09-27T16:50:49.597Z,1.40
2022-09-27T16:53:16.770Z,1.00
2022-09-27T16:55:43.687Z,0.90
2022-09-27T16:58:10.682Z,1.38
2022-09-27T17:00:37.793Z,1.00
2022-09-27T17:03:04.832Z,0.73
2022-09-27T17:05:31.967Z,0.82
2022-09-27T17:07:59.100Z,1.30
2022-09-27T17:14:09.042Z,0.70
2022-09-27T17:16:36.376Z,0.80
2022-09-27T17:19:03.644Z,0.60
2022-09-27T17:21:34.430Z,2.70
2022-09-27T17:24:05.079Z,2.25
2022-09-27T17:26:32.289Z,1.50
2022-09-27T17:29:07.231Z,1.10
2022-09-27T17:31:35.242Z,2.05
2022-09-27T17:34:03.245Z,2.03
2022-09-27T17:36:35.782Z,1.80
2022-09-27T17:39:05.172Z,2.13
2022-09-27T17:41:39.738Z,2.00
2022-09-27T17:44:07.597Z,1.40
2022-09-27T17:46:37.238Z,1.40
2022-09-27T17:49:23.531Z,1.23
2022-09-27T17:51:52.966Z,0.95
2022-09-27T17:54:23.585Z,0.77
2022-09-27T17:56:51.245Z,0.77
2022-09-27T17:59:19.150Z,1.00
2022-09-27T18:01:47.934Z,1.20
2022-09-27T18:04:17.767Z,0.95
2022-09-27T18:06:46.671Z,1.10
2022-09-27T18:09:16.147Z,1.00
2022-09-27T18:11:44.203Z,1.90
2022-09-27T18:14:12.392Z,1.55
2022-09-27T18:16:45.214Z,1.40
2022-09-27T18:19:15.032Z,1.25
2022-09-27T18:21:42.523Z,1.42
2022-09-27T18:24:10.690Z,1.33
2022-09-27T18:26:38.926Z,1.40
2022-09-27T18:29:14.674Z,1.10
2022-09-27T18:31:47.520Z,1.10
2022-09-27T18:34:19.238Z,1.08
2022-09-27T18:36:46.327Z,0.90
2022-09-27T18:39:18.166Z,1.00
2022-09-27T18:41:48.720Z,0.90
2022-09-27T18:44:19.544Z,0.90
2022-09-27T18:46:47.368Z,0.90
2022-09-27T18:49:15.229Z,1.40
2022-09-27T18:51:44.863Z,1.10
2022-09-27T18:54:18.416Z,0.98
2022-09-27T18:56:47.080Z,1.00
2022-09-27T18:59:14.382Z,1.15
2022-09-27T19:01:45.354Z,1.05
2022-09-27T19:04:23.910Z,0.90
2022-09-27T19:09:19.040Z,1.37
2022-09-27T19:11:46.560Z,0.80
2022-09-27T19:14:19.581Z,1.02
2022-09-27T19:16:48.075Z,0.80
2022-09-27T19:21:43.441Z,1.02
2022-09-27T19:24:10.487Z,0.90
2022-09-27T19:26:37.423Z,1.10
2022-09-27T19:29:05.624Z,1.20
2022-09-27T19:31:32.840Z,1.20
2022-09-27T19:34:00.714Z,1.23
2022-09-27T19:36:28.531Z,1.23
2022-09-27T19:38:58.496Z,0.85
2022-09-27T19:41:25.954Z,1.02
2022-09-27T19:43:53.874Z,1.00
2022-09-27T19:46:22.215Z,0.90
2022-09-27T19:48:50.660Z,0.93
2022-09-27T19:51:28.287Z,0.80
2022-09-27T19:53:56.987Z,0.80
2022-09-27T19:56:24.758Z,0.70
2022-09-27T19:58:52.335Z,0.83
2022-09-27T20:01:20.536Z,0.70
2022-09-27T20:03:49.840Z,1.23
2022-09-27T20:06:19.195Z,1.13
2022-09-27T20:08:47.965Z,1.00
2022-09-27T20:11:19.914Z,0.90
2022-09-27T20:13:47.485Z,0.88
2022-09-27T20:16:19.978Z,1.02
2022-09-27T20:18:49.390Z,0.88
2022-09-27T20:21:17.824Z,0.85
2022-09-27T20:23:47.892Z,1.00
2022-09-27T20:26:16.534Z,0.80
2022-09-27T20:31:13.544Z,0.95
2022-09-27T20:33:50.930Z,0.82
2022-09-27T20:36:19.143Z,0.77
2022-09-27T20:39:16.997Z,1.05
2022-09-27T20:41:46.072Z,0.95
2022-09-27T20:44:16.433Z,0.85
2022-09-27T20:46:44.515Z,0.82
2022-09-27T20:49:14.843Z,1.48
2022-09-27T20:51:43.713Z,0.90
2022-09-27T20:54:12.771Z,1.05
2022-09-27T20:56:42.481Z,1.20
2022-09-27T20:59:19.126Z,1.60
2022-09-27T21:01:47.994Z,1.00
2022-09-27T21:06:43.390Z,0.90
2022-09-27T21:09:17.064Z,1.02
2022-09-27T21:11:45.950Z,0.95
2022-09-27T21:16:39.914Z,1.02
2022-09-27T21:19:07.090Z,0.90
2022-09-27T21:21:34.203Z,0.95
2022-09-27T21:24:02.412Z,1.02
2022-09-27T21:26:31.949Z,1.05
2022-09-27T21:29:00.773Z,1.00
2022-09-27T21:31:30.035Z,0.98
2022-09-27T21:33:59.403Z,1.45
2022-09-27T21:36:38.086Z,0.90
2022-09-27T21:39:09.694Z,1.00
2022-09-27T21:41:38.951Z,0.82
2022-09-27T21:44:06.719Z,0.70
2022-09-27T21:46:34.243Z,0.80
2022-09-27T21:49:02.309Z,0.45
2022-09-27T21:51:31.812Z,0.70
2022-09-27T21:54:00.801Z,0.70
2022-09-27T21:56:33.441Z,0.70
2022-09-27T21:59:00.960Z,0.60
2022-09-27T22:01:30.401Z,0.60
2022-09-27T22:03:58.883Z,0.45
2022-09-27T22:06:31.370Z,0.60
2022-09-27T22:09:00.478Z,0.47
2022-09-27T22:11:30.506Z,0.60
2022-09-27T22:13:57.897Z,0.50
2022-09-27T22:16:30.166Z,0.52
2022-09-27T22:18:58.378Z,0.60
2022-09-27T22:21:33.526Z,0.40
2022-09-27T22:24:07.221Z,0.50
2022-09-27T22:26:37.101Z,0.38
2022-09-27T22:29:04.935Z,0.50
2022-09-27T22:31:32.380Z,0.50
2022-09-27T22:34:02.689Z,0.50
2022-09-27T22:36:31.541Z,0.40
2022-09-27T22:38:58.700Z,0.60
2022-09-27T22:41:26.197Z,0.40
2022-09-27T22:43:53.583Z,0.60
2022-09-27T22:46:21.707Z,0.40
2022-09-27T22:48:49.840Z,0.40
2022-09-27T22:51:18.134Z,0.50
2022-09-27T22:53:45.425Z,0.40
2022-09-27T22:56:17.669Z,0.40
2022-09-27T22:58:45.407Z,0.40
2022-09-27T23:01:21.096Z,0.40
2022-09-27T23:03:49.819Z,0.38
2022-09-27T23:08:44.875Z,0.40
2022-09-27T23:11:14.414Z,0.40
2022-09-27T23:13:43.101Z,0.40
2022-09-27T23:21:08.278Z,0.30
2022-09-27T23:23:37.131Z,0.28
2022-09-27T23:26:07.230Z,0.20
2022-09-27T23:28:35.579Z,0.32
2022-09-27T23:31:14.380Z,0.40
2022-09-27T23:33:43.601Z,0.50
2022-09-27T23:36:12.797Z,0.40
2022-09-27T23:38:41.113Z,0.30
2022-09-27T23:41:08.463Z,0.60
2022-09-27T23:43:36.492Z,0.38
2022-09-27T23:46:08.362Z,0.30
2022-09-27T23:48:36.790Z,0.30
2022-09-27T23:51:05.773Z,0.30
2022-09-27T23:53:32.917Z,0.60
2022-09-27T23:56:04.337Z,0.35
2022-09-27T23:58:38.857Z,0.38
